Benton, CA

10:57 AM PST on November 26, 2014 (GMT -0800)
Bishop | Change Station
CLOSE
Current Station
Airport
Location: Bishop,
Elevation: 4144 ft
Nearby Weather Stations

Elev 4144 ft 37.37 °N, 118.36 °W | Updated 1 hour ago

Clear
Clear
59 °F
Feels Like 59 °F
N
0
Wind Variable Wind from North

Today
High -- | Low -- °F
--% Chance of Precip.
Yesterday
High -- | Low -- °F
Precip. -- in
6:46 AM 4:37 PM
Waxing Crescent, 22% visible
Pressure 30.43 in
Visibility 10.0 miles
Clouds Clear
Dew Point 20 °F
Humidity 22%
Rainfall 0.00 in
Snow Depth Not available.
UV 3 out of 12
Pollen 1.00 out of 12
Air Quality Not available.
Flu Activity Not available.
METAR KBIH 261756Z AUTO 00000KT 10SM CLR 15/M07 A3046 RMK AO2 SLP304 T01501067 10150 21028 50002

More Conditions Fewer Conditions

Pressure 30.43 in
Visibility 10.0 miles
Clouds Clear
Dew Point 20 °F
Humidity 22%
Rainfall 0.00 in
Snow Depth Not available.
UV 3 out of 12
Pollen 1.00 out of 12
Air Quality Not available.
Flu Activity Not available.
METAR KBIH 261756Z AUTO 00000KT 10SM CLR 15/M07 A3046 RMK AO2 SLP304 T01501067 10150 21028 50002

More Conditions Fewer Conditions

10-Day Weather Forecast

Almanac

Astronomy

Nov. 26, 2014 Rise Set
Actual Time
Civil Twilight
Nautical Twilight
Astronomical Twilight
Moon
Length of Visible Light
Length of Day
Tomorrow will be .
, % of the Moon is Illuminated

Today's Extremes

State Highs State Lows

Community

WunderPhotos

Upload Photos

1,773,827 photos uploaded!

WunderBlogs® & News

Nearby

Air Quality

  Air Quality AQ Index Pollutant
Not available.

Snow Depth

Station Depth Elevation

Earthquake Activity

City Distance Mag. Time & Date
Minimum magnitude displayed is 2.5.

Coastal Water Temperatures

Place Temperature

Nearby Weather Stations